DK-0019 weather

Estruplund Flyveplads
Estruplund, Central Jutland, Denmark

Public forecast

Using degrees Celsius for public forecast. Weather courtesy of forecast.io.

METAR (pilot weather report)

Closest report is Aarhus Airport, 17.7 nm (32.8 km) SSE. Retrieved 2019/05/21 10:20 UTC (0 seconds ago):

EKAH 211020Z AUTO 02003KT 9999NDV BKN009/// BKN044/// BKN057/// 17/16 Q1007

TAF (pilot weather forecast)

Closest forecast is Aarhus Airport, 17.7 nm (32.8 km) SSE. Retrieved 2019/05/21 06:12 UTC (4 hours ago):

TAF TAF EKAH 210504Z 2106/2206 01008KT 1000 BR OVC001 TEMPO 2106/2108 5000 SHRA SCT040CB BECMG 2108/2110 8000 NSW SCT015 TEMPO 2110/2204 4000 SHRA BKN010 SCT020CB BECMG 2204/2206 2000 BR BKN002